Accueil
METAR-TAF:

METAR-TAF

Aéroports :

Rolla National Airport

Rolla, Missouri, États-Unis

latitude: 38-07-55N, longitude: 091-45-55W, altitude: 350 m

Observation

Le bulletin a été fait il y a 53 minutes, à 16:53 UTC
Vent 9 kt de nord/nord-ouest
Température 5°C
Humidité 56%
Pression 1026 hPa
Visibilité: 16.1 km
Quelques nuages à une hauteur de 5000 ft

METAR: KVIH 141653Z AUTO 33009KT 10SM FEW050 05/M03 A3030 RMK AO2 SLP267 T00501028

Heure: 11:46 (17:46 UTC)


TAF: absent

Observations et prévisions météorologiques de plus de 4000 aéroports (messages METAR et TAF).

Les stations disponibles sont représentées par des disques jaunes et rouges sur la carte.

Passer la souris dessus pour voir le nom de la station.

Cliquer dessus pour voir les observations et prévisions météorologiques.

Pour changer de carte: cliquez sur les boutons verts avec une croix noire pour zoomer, sur le bouton vert avec un tiret pour effectuer un zoom arrière, ou sur les flèches vertes pour les cartes adjacentes.


METAR-TAF: